sensor_id;sensor_type;location;lat;lon;timestamp;pressure;altitude;pressure_sealevel;temperature;humidity
8416;BME280;4245;42.120;24.732;2023-05-06T00:01:52;99369.31;;;16.37;88.39
8416;BME280;4245;42.120;24.732;2023-05-06T00:04:18;99369.31;;;16.27;91.80
8416;BME280;4245;42.120;24.732;2023-05-06T00:06:48;99373.97;;;16.25;93.51
8416;BME280;4245;42.120;24.732;2023-05-06T00:09:16;99363.53;;;16.22;94.51
8416;BME280;4245;42.120;24.732;2023-05-06T00:11:43;99357.31;;;16.02;98.08
8416;BME280;4245;42.120;24.732;2023-05-06T00:14:11;99353.09;;;15.90;100.00
8416;BME280;4245;42.120;24.732;2023-05-06T00:16:43;99355.47;;;15.84;100.00
8416;BME280;4245;42.120;24.732;2023-05-06T00:19:12;99360.56;;;15.87;100.00
8416;BME280;4245;42.120;24.732;2023-05-06T00:21:39;99355.88;;;15.79;100.00
8416;BME280;4245;42.120;24.732;2023-05-06T00:24:06;99353.91;;;15.81;100.00
8416;BME280;4245;42.120;24.732;2023-05-06T00:26:33;99359.41;;;15.89;100.00
8416;BME280;4245;42.120;24.732;2023-05-06T00:29:00;99353.91;;;15.81;100.00
8416;BME280;4245;42.120;24.732;2023-05-06T00:31:27;99351.25;;;15.81;100.00
8416;BME280;4245;42.120;24.732;2023-05-06T00:33:53;99355.31;;;15.76;100.00
8416;BME280;4245;42.120;24.732;2023-05-06T00:36:23;99353.19;;;15.70;100.00
8416;BME280;4245;42.120;24.732;2023-05-06T00:38:53;99354.03;;;15.70;100.00
8416;BME280;4245;42.120;24.732;2023-05-06T00:41:22;99354.16;;;15.69;100.00
8416;BME280;4245;42.120;24.732;2023-05-06T00:43:50;99357.25;;;15.64;100.00
8416;BME280;4245;42.120;24.732;2023-05-06T00:46:17;99352.59;;;15.56;100.00
8416;BME280;4245;42.120;24.732;2023-05-06T00:48:44;99355.28;;;15.56;100.00
8416;BME280;4245;42.120;24.732;2023-05-06T00:51:11;99358.53;;;15.60;100.00
8416;BME280;4245;42.120;24.732;2023-05-06T00:53:40;99361.91;;;15.52;100.00
8416;BME280;4245;42.120;24.732;2023-05-06T00:56:07;99362.53;;;15.45;100.00
8416;BME280;4245;42.120;24.732;2023-05-06T00:58:35;99358.84;;;15.36;100.00
8416;BME280;4245;42.120;24.732;2023-05-06T01:01:02;99356.28;;;15.35;100.00
8416;BME280;4245;42.120;24.732;2023-05-06T01:03:29;99362.69;;;15.43;100.00
8416;BME280;4245;42.120;24.732;2023-05-06T01:06:05;99356.00;;;15.28;100.00
8416;BME280;4245;42.120;24.732;2023-05-06T01:08:41;99354.59;;;15.24;100.00
8416;BME280;4245;42.120;24.732;2023-05-06T01:11:15;99355.06;;;15.08;100.00
8416;BME280;4245;42.120;24.732;2023-05-06T01:13:48;99355.94;;;15.09;100.00
8416;BME280;4245;42.120;24.732;2023-05-06T01:16:19;99352.81;;;15.04;100.00
8416;BME280;4245;42.120;24.732;2023-05-06T01:18:48;99357.47;;;15.11;100.00
8416;BME280;4245;42.120;24.732;2023-05-06T01:21:16;99352.94;;;15.02;100.00
8416;BME280;4245;42.120;24.732;2023-05-06T01:23:52;99351.78;;;14.95;100.00
8416;BME280;4245;42.120;24.732;2023-05-06T01:26:22;99344.00;;;14.92;100.00
8416;BME280;4245;42.120;24.732;2023-05-06T01:28:50;99352.38;;;14.78;100.00
8416;BME280;4245;42.120;24.732;2023-05-06T01:31:25;99352.97;;;14.82;100.00
8416;BME280;4245;42.120;24.732;2023-05-06T01:34:08;99347.97;;;14.98;100.00
8416;BME280;4245;42.120;24.732;2023-05-06T01:36:51;99344.69;;;14.85;100.00
8416;BME280;4245;42.120;24.732;2023-05-06T01:39:24;99336.50;;;14.56;100.00
8416;BME280;4245;42.120;24.732;2023-05-06T01:41:55;99342.41;;;14.39;100.00
8416;BME280;4245;42.120;24.732;2023-05-06T01:44:26;99342.84;;;14.23;100.00
8416;BME280;4245;42.120;24.732;2023-05-06T01:46:54;99343.41;;;14.38;100.00
8416;BME280;4245;42.120;24.732;2023-05-06T01:49:22;99344.13;;;14.28;100.00
8416;BME280;4245;42.120;24.732;2023-05-06T01:51:52;99334.19;;;14.30;100.00
8416;BME280;4245;42.120;24.732;2023-05-06T01:54:21;99336.56;;;14.33;100.00
8416;BME280;4245;42.120;24.732;2023-05-06T01:56:49;99327.81;;;13.90;100.00
8416;BME280;4245;42.120;24.732;2023-05-06T01:59:19;99331.78;;;13.96;100.00
8416;BME280;4245;42.120;24.732;2023-05-06T02:01:46;99333.00;;;14.03;100.00
8416;BME280;4245;42.120;24.732;2023-05-06T02:04:13;99332.72;;;14.06;100.00
8416;BME280;4245;42.120;24.732;2023-05-06T02:06:42;99337.38;;;14.24;100.00
8416;BME280;4245;42.120;24.732;2023-05-06T02:09:09;99332.56;;;14.18;100.00
8416;BME280;4245;42.120;24.732;2023-05-06T02:11:37;99329.63;;;14.21;100.00
8416;BME280;4245;42.120;24.732;2023-05-06T02:14:07;99337.16;;;14.16;100.00
8416;BME280;4245;42.120;24.732;2023-05-06T02:16:34;99329.94;;;14.07;100.00
8416;BME280;4245;42.120;24.732;2023-05-06T02:19:01;99322.84;;;14.17;100.00
8416;BME280;4245;42.120;24.732;2023-05-06T02:21:28;99324.97;;;14.23;100.00
8416;BME280;4245;42.120;24.732;2023-05-06T02:23:55;99332.56;;;14.18;100.00
8416;BME280;4245;42.120;24.732;2023-05-06T02:26:22;99329.88;;;14.18;100.00
8416;BME280;4245;42.120;24.732;2023-05-06T02:28:49;99322.91;;;14.27;100.00
8416;BME280;4245;42.120;24.732;2023-05-06T02:31:17;99324.34;;;14.31;100.00
8416;BME280;4245;42.120;24.732;2023-05-06T02:33:45;99323.59;;;14.29;100.00
8416;BME280;4245;42.120;24.732;2023-05-06T02:36:12;99328.38;;;14.25;100.00
8416;BME280;4245;42.120;24.732;2023-05-06T02:38:39;99333.13;;;14.22;100.00
8416;BME280;4245;42.120;24.732;2023-05-06T02:41:06;99322.19;;;14.25;100.00
8416;BME280;4245;42.120;24.732;2023-05-06T02:43:33;99328.97;;;14.29;100.00
8416;BME280;4245;42.120;24.732;2023-05-06T02:46:00;99328.34;;;14.37;100.00
8416;BME280;4245;42.120;24.732;2023-05-06T02:48:29;99332.84;;;14.36;100.00
8416;BME280;4245;42.120;24.732;2023-05-06T02:50:56;99329.56;;;14.53;100.00
8416;BME280;4245;42.120;24.732;2023-05-06T02:53:24;99331.41;;;14.53;100.00
8416;BME280;4245;42.120;24.732;2023-05-06T02:55:53;99331.56;;;14.51;100.00
8416;BME280;4245;42.120;24.732;2023-05-06T02:58:21;99328.47;;;14.56;100.00
8416;BME280;4245;42.120;24.732;2023-05-06T03:00:48;99334.47;;;14.48;100.00
8416;BME280;4245;42.120;24.732;2023-05-06T03:03:18;99335.72;;;14.44;100.00
8416;BME280;4245;42.120;24.732;2023-05-06T03:05:47;99323.59;;;14.40;100.00
8416;BME280;4245;42.120;24.732;2023-05-06T03:08:16;99325.88;;;14.33;100.00
8416;BME280;4245;42.120;24.732;2023-05-06T03:10:43;99328.66;;;14.43;100.00
8416;BME280;4245;42.120;24.732;2023-05-06T03:13:10;99323.78;;;14.48;100.00
8416;BME280;4245;42.120;24.732;2023-05-06T03:15:37;99318.97;;;14.42;100.00
8416;BME280;4245;42.120;24.732;2023-05-06T03:18:04;99325.34;;;14.51;100.00
8416;BME280;4245;42.120;24.732;2023-05-06T03:20:31;99328.59;;;14.54;100.00
8416;BME280;4245;42.120;24.732;2023-05-06T03:22:59;99330.94;;;14.68;100.00
8416;BME280;4245;42.120;24.732;2023-05-06T03:25:26;99329.22;;;14.67;100.00
8416;BME280;4245;42.120;24.732;2023-05-06T03:27:53;99334.19;;;14.72;100.00
8416;BME280;4245;42.120;24.732;2023-05-06T03:30:20;99336.78;;;14.83;100.00
8416;BME280;4245;42.120;24.732;2023-05-06T03:32:47;99345.66;;;14.84;100.00
8416;BME280;4245;42.120;24.732;2023-05-06T03:35:15;99349.97;;;14.96;100.00
8416;BME280;4245;42.120;24.732;2023-05-06T03:37:42;99354.72;;;14.92;100.00
8416;BME280;4245;42.120;24.732;2023-05-06T03:40:11;99353.28;;;14.88;100.00
8416;BME280;4245;42.120;24.732;2023-05-06T03:42:38;99361.75;;;14.93;100.00
8416;BME280;4245;42.120;24.732;2023-05-06T03:45:06;99358.75;;;14.87;100.00
8416;BME280;4245;42.120;24.732;2023-05-06T03:47:33;99360.22;;;14.91;100.00
8416;BME280;4245;42.120;24.732;2023-05-06T03:50:02;99361.47;;;14.96;100.00
8416;BME280;4245;42.120;24.732;2023-05-06T03:52:29;99370.09;;;15.00;100.00
8416;BME280;4245;42.120;24.732;2023-05-06T03:54:56;99371.44;;;15.15;100.00
8416;BME280;4245;42.120;24.732;2023-05-06T03:57:27;99378.97;;;15.31;100.00
8416;BME280;4245;42.120;24.732;2023-05-06T03:59:54;99371.66;;;15.33;100.00
8416;BME280;4245;42.120;24.732;2023-05-06T04:02:21;99379.69;;;15.33;100.00
8416;BME280;4245;42.120;24.732;2023-05-06T04:04:48;99384.06;;;15.34;100.00
8416;BME280;4245;42.120;24.732;2023-05-06T04:07:15;99386.13;;;15.30;100.00
8416;BME280;4245;42.120;24.732;2023-05-06T04:09:43;99387.00;;;15.31;100.00
8416;BME280;4245;42.120;24.732;2023-05-06T04:12:10;99388.81;;;15.30;100.00
8416;BME280;4245;42.120;24.732;2023-05-06T04:14:38;99394.44;;;15.27;99.16
8416;BME280;4245;42.120;24.732;2023-05-06T04:17:05;99395.75;;;15.33;97.93
8416;BME280;4245;42.120;24.732;2023-05-06T04:19:32;99395.34;;;15.37;98.14
8416;BME280;4245;42.120;24.732;2023-05-06T04:21:59;99388.31;;;15.46;97.54
8416;BME280;4245;42.120;24.732;2023-05-06T04:24:27;99398.47;;;15.42;97.12
8416;BME280;4245;42.120;24.732;2023-05-06T04:26:55;99392.03;;;15.54;96.71
8416;BME280;4245;42.120;24.732;2023-05-06T04:29:22;99396.41;;;15.55;96.38
8416;BME280;4245;42.120;24.732;2023-05-06T04:31:52;99393.59;;;15.57;95.96
8416;BME280;4245;42.120;24.732;2023-05-06T04:34:19;99389.41;;;15.74;95.22
8416;BME280;4245;42.120;24.732;2023-05-06T04:36:46;99395.50;;;15.76;94.30
8416;BME280;4245;42.120;24.732;2023-05-06T04:39:15;99397.78;;;15.90;93.96
8416;BME280;4245;42.120;24.732;2023-05-06T04:41:43;99398.34;;;15.93;93.54
8416;BME280;4245;42.120;24.732;2023-05-06T04:44:10;99399.78;;;15.97;93.12
8416;BME280;4245;42.120;24.732;2023-05-06T04:46:37;99393.16;;;16.11;92.33
8416;BME280;4245;42.120;24.732;2023-05-06T04:49:05;99399.38;;;16.31;91.24
8416;BME280;4245;42.120;24.732;2023-05-06T04:51:32;99410.38;;;16.37;90.27
8416;BME280;4245;42.120;24.732;2023-05-06T04:54:01;99416.75;;;16.65;89.09
8416;BME280;4245;42.120;24.732;2023-05-06T04:56:28;99410.38;;;16.66;88.61
8416;BME280;4245;42.120;24.732;2023-05-06T04:58:55;99413.34;;;16.82;88.88
8416;BME280;4245;42.120;24.732;2023-05-06T05:01:22;99421.91;;;17.05;86.73
8416;BME280;4245;42.120;24.732;2023-05-06T05:03:51;99418.25;;;16.97;87.21
8416;BME280;4245;42.120;24.732;2023-05-06T05:06:21;99417.34;;;17.15;86.65
8416;BME280;4245;42.120;24.732;2023-05-06T05:08:48;99414.81;;;17.14;86.57
8416;BME280;4245;42.120;24.732;2023-05-06T05:11:15;99420.69;;;17.36;84.95
8416;BME280;4245;42.120;24.732;2023-05-06T05:13:42;99414.50;;;17.26;84.70
8416;BME280;4245;42.120;24.732;2023-05-06T05:16:09;99410.75;;;17.00;86.92
8416;BME280;4245;42.120;24.732;2023-05-06T05:18:38;99420.81;;;16.98;88.11
8416;BME280;4245;42.120;24.732;2023-05-06T05:21:05;99412.84;;;17.16;85.96
8416;BME280;4245;42.120;24.732;2023-05-06T05:23:47;99413.97;;;17.23;85.81
8416;BME280;4245;42.120;24.732;2023-05-06T05:26:14;99411.38;;;17.31;85.72
8416;BME280;4245;42.120;24.732;2023-05-06T05:28:41;99414.69;;;17.52;83.41
8416;BME280;4245;42.120;24.732;2023-05-06T05:31:09;99409.22;;;17.81;81.55
8416;BME280;4245;42.120;24.732;2023-05-06T05:33:36;99409.81;;;18.20;78.64
8416;BME280;4245;42.120;24.732;2023-05-06T05:36:03;99407.97;;;18.56;76.67
8416;BME280;4245;42.120;24.732;2023-05-06T05:38:30;99416.19;;;18.98;73.13
8416;BME280;4245;42.120;24.732;2023-05-06T05:40:59;99412.00;;;18.95;72.36
8416;BME280;4245;42.120;24.732;2023-05-06T05:43:26;99417.56;;;19.28;70.57
8416;BME280;4245;42.120;24.732;2023-05-06T05:45:53;99417.25;;;19.57;68.97
8416;BME280;4245;42.120;24.732;2023-05-06T05:48:19;99417.22;;;19.82;67.67
8416;BME280;4245;42.120;24.732;2023-05-06T05:50:46;99422.66;;;19.99;67.13
8416;BME280;4245;42.120;24.732;2023-05-06T05:53:14;99423.03;;;20.12;66.90
8416;BME280;4245;42.120;24.732;2023-05-06T05:55:41;99418.50;;;20.20;66.86
8416;BME280;4245;42.120;24.732;2023-05-06T05:58:10;99418.41;;;20.46;65.63
8416;BME280;4245;42.120;24.732;2023-05-06T06:00:37;99416.03;;;20.43;63.75
8416;BME280;4245;42.120;24.732;2023-05-06T06:03:04;99423.78;;;20.62;62.13
8416;BME280;4245;42.120;24.732;2023-05-06T06:05:31;99433.59;;;20.79;61.57
8416;BME280;4245;42.120;24.732;2023-05-06T06:07:58;99422.28;;;20.68;62.30
8416;BME280;4245;42.120;24.732;2023-05-06T06:10:25;99426.69;;;20.93;61.06
8416;BME280;4245;42.120;24.732;2023-05-06T06:12:52;99433.09;;;20.92;60.76
8416;BME280;4245;42.120;24.732;2023-05-06T06:15:20;99433.63;;;20.96;58.95
8416;BME280;4245;42.120;24.732;2023-05-06T06:17:47;99433.09;;;20.84;59.70
8416;BME280;4245;42.120;24.732;2023-05-06T06:20:14;99435.28;;;21.21;59.17
8416;BME280;4245;42.120;24.732;2023-05-06T06:22:42;99429.72;;;21.22;59.53
8416;BME280;4245;42.120;24.732;2023-05-06T06:25:09;99423.25;;;21.40;59.21
8416;BME280;4245;42.120;24.732;2023-05-06T06:27:35;99421.91;;;21.44;59.16
8416;BME280;4245;42.120;24.732;2023-05-06T06:30:03;99423.25;;;21.87;58.14
8416;BME280;4245;42.120;24.732;2023-05-06T06:32:31;99421.06;;;21.35;59.27
8416;BME280;4245;42.120;24.732;2023-05-06T06:34:58;99426.50;;;21.03;60.51
8416;BME280;4245;42.120;24.732;2023-05-06T06:37:25;99428.88;;;21.14;60.05
8416;BME280;4245;42.120;24.732;2023-05-06T06:39:52;99417.38;;;21.28;58.66
8416;BME280;4245;42.120;24.732;2023-05-06T06:42:19;99424.13;;;21.32;57.81
8416;BME280;4245;42.120;24.732;2023-05-06T06:47:21;99424.22;;;21.63;57.04
8416;BME280;4245;42.120;24.732;2023-05-06T06:49:50;99423.38;;;21.62;56.79
8416;BME280;4245;42.120;24.732;2023-05-06T06:52:17;99419.31;;;21.58;58.14
8416;BME280;4245;42.120;24.732;2023-05-06T06:54:44;99418.84;;;21.94;57.67
8416;BME280;4245;42.120;24.732;2023-05-06T06:57:10;99416.56;;;22.14;56.32
8416;BME280;4245;42.120;24.732;2023-05-06T06:59:37;99422.53;;;22.32;55.99
8416;BME280;4245;42.120;24.732;2023-05-06T07:02:04;99425.06;;;22.33;55.30
8416;BME280;4245;42.120;24.732;2023-05-06T07:04:32;99427.94;;;22.32;56.91
8416;BME280;4245;42.120;24.732;2023-05-06T07:07:00;99426.00;;;22.71;54.29
8416;BME280;4245;42.120;24.732;2023-05-06T07:09:27;99418.31;;;22.52;54.78
8416;BME280;4245;42.120;24.732;2023-05-06T07:11:54;99424.13;;;22.49;55.80
8416;BME280;4245;42.120;24.732;2023-05-06T07:14:22;99416.47;;;22.52;53.14
8416;BME280;4245;42.120;24.732;2023-05-06T07:16:50;99415.91;;;22.57;53.14
8416;BME280;4245;42.120;24.732;2023-05-06T07:19:17;99415.00;;;22.73;52.92
8416;BME280;4245;42.120;24.732;2023-05-06T07:21:45;99422.44;;;22.93;51.72
8416;BME280;4245;42.120;24.732;2023-05-06T07:24:13;99424.41;;;23.00;49.60
8416;BME280;4245;42.120;24.732;2023-05-06T07:26:40;99414.75;;;23.34;50.78
8416;BME280;4245;42.120;24.732;2023-05-06T07:29:07;99410.66;;;23.68;48.24
8416;BME280;4245;42.120;24.732;2023-05-06T07:31:34;99412.44;;;23.90;47.34
8416;BME280;4245;42.120;24.732;2023-05-06T07:34:01;99422.88;;;24.08;45.58
8416;BME280;4245;42.120;24.732;2023-05-06T07:36:28;99417.13;;;23.52;47.55
8416;BME280;4245;42.120;24.732;2023-05-06T07:38:59;99411.13;;;23.42;47.33
8416;BME280;4245;42.120;24.732;2023-05-06T07:41:27;99417.59;;;23.56;47.57
8416;BME280;4245;42.120;24.732;2023-05-06T07:43:54;99410.91;;;23.88;47.87
8416;BME280;4245;42.120;24.732;2023-05-06T07:46:21;99417.84;;;24.41;45.79
8416;BME280;4245;42.120;24.732;2023-05-06T07:48:48;99418.56;;;24.71;44.50
8416;BME280;4245;42.120;24.732;2023-05-06T07:51:15;99427.44;;;25.00;43.65
8416;BME280;4245;42.120;24.732;2023-05-06T07:53:43;99424.06;;;24.77;43.80
8416;BME280;4245;42.120;24.732;2023-05-06T07:56:11;99426.97;;;24.76;46.04
8416;BME280;4245;42.120;24.732;2023-05-06T07:58:39;99432.16;;;25.41;42.25
8416;BME280;4245;42.120;24.732;2023-05-06T08:01:06;99433.41;;;25.73;41.19
8416;BME280;4245;42.120;24.732;2023-05-06T08:03:34;99430.00;;;25.99;42.12
8416;BME280;4245;42.120;24.732;2023-05-06T08:06:01;99428.38;;;26.17;40.65
8416;BME280;4245;42.120;24.732;2023-05-06T08:08:28;99436.47;;;25.98;40.22
8416;BME280;4245;42.120;24.732;2023-05-06T08:10:56;99433.97;;;26.03;38.63
8416;BME280;4245;42.120;24.732;2023-05-06T08:13:23;99432.91;;;25.97;39.37
8416;BME280;4245;42.120;24.732;2023-05-06T08:15:52;99428.72;;;25.94;41.83
8416;BME280;4245;42.120;24.732;2023-05-06T08:18:19;99425.59;;;26.78;39.86
8416;BME280;4245;42.120;24.732;2023-05-06T08:20:46;99434.03;;;27.42;42.64
8416;BME280;4245;42.120;24.732;2023-05-06T08:23:13;99430.78;;;27.98;37.87
8416;BME280;4245;42.120;24.732;2023-05-06T08:25:40;99436.59;;;28.21;37.42
8416;BME280;4245;42.120;24.732;2023-05-06T08:28:07;99432.38;;;28.57;34.04
8416;BME280;4245;42.120;24.732;2023-05-06T08:30:34;99435.69;;;28.27;35.56
8416;BME280;4245;42.120;24.732;2023-05-06T08:33:03;99433.88;;;28.52;34.92
8416;BME280;4245;42.120;24.732;2023-05-06T08:35:30;99428.28;;;28.79;33.87
8416;BME280;4245;42.120;24.732;2023-05-06T08:37:57;99435.25;;;28.68;33.46
8416;BME280;4245;42.120;24.732;2023-05-06T08:40:26;99422.66;;;28.74;33.96
8416;BME280;4245;42.120;24.732;2023-05-06T08:42:54;99431.25;;;29.02;34.31
8416;BME280;4245;42.120;24.732;2023-05-06T08:45:23;99431.44;;;29.07;32.94
8416;BME280;4245;42.120;24.732;2023-05-06T08:47:50;99429.53;;;29.08;32.38
8416;BME280;4245;42.120;24.732;2023-05-06T08:50:19;99432.78;;;29.23;33.11
8416;BME280;4245;42.120;24.732;2023-05-06T08:52:46;99433.16;;;29.51;33.09
8416;BME280;4245;42.120;24.732;2023-05-06T08:55:13;99435.69;;;29.71;32.17
8416;BME280;4245;42.120;24.732;2023-05-06T08:57:41;99436.28;;;29.55;32.55
8416;BME280;4245;42.120;24.732;2023-05-06T09:00:11;99435.00;;;29.57;31.93
8416;BME280;4245;42.120;24.732;2023-05-06T09:02:39;99429.44;;;29.64;31.93
8416;BME280;4245;42.120;24.732;2023-05-06T09:05:07;99429.84;;;29.86;31.42
8416;BME280;4245;42.120;24.732;2023-05-06T09:07:39;99431.69;;;29.49;31.48
8416;BME280;4245;42.120;24.732;2023-05-06T09:10:06;99431.28;;;29.70;31.17
8416;BME280;4245;42.120;24.732;2023-05-06T09:12:38;99425.31;;;30.46;30.50
8416;BME280;4245;42.120;24.732;2023-05-06T09:15:06;99422.31;;;31.07;29.15
8416;BME280;4245;42.120;24.732;2023-05-06T09:17:33;99418.75;;;30.77;29.20
8416;BME280;4245;42.120;24.732;2023-05-06T09:19:59;99424.28;;;30.29;30.09
8416;BME280;4245;42.120;24.732;2023-05-06T09:22:28;99420.34;;;30.25;30.57
8416;BME280;4245;42.120;24.732;2023-05-06T09:24:57;99417.16;;;30.09;30.74
8416;BME280;4245;42.120;24.732;2023-05-06T09:27:25;99414.75;;;30.31;30.52
8416;BME280;4245;42.120;24.732;2023-05-06T09:29:59;99416.22;;;29.79;30.29
8416;BME280;4245;42.120;24.732;2023-05-06T09:32:27;99425.56;;;29.28;31.30
8416;BME280;4245;42.120;24.732;2023-05-06T09:34:54;99412.38;;;28.63;32.43
8416;BME280;4245;42.120;24.732;2023-05-06T09:37:21;99412.19;;;28.58;33.01
8416;BME280;4245;42.120;24.732;2023-05-06T09:39:49;99405.41;;;28.67;32.41
8416;BME280;4245;42.120;24.732;2023-05-06T09:42:21;99405.38;;;29.05;32.23
8416;BME280;4245;42.120;24.732;2023-05-06T09:44:49;99413.56;;;30.09;30.73
8416;BME280;4245;42.120;24.732;2023-05-06T09:47:16;99407.28;;;29.90;30.66
8416;BME280;4245;42.120;24.732;2023-05-06T09:49:44;99396.63;;;30.00;30.27
8416;BME280;4245;42.120;24.732;2023-05-06T09:52:11;99399.41;;;30.42;30.39
8416;BME280;4245;42.120;24.732;2023-05-06T09:54:39;99399.31;;;31.08;29.01
8416;BME280;4245;42.120;24.732;2023-05-06T09:57:06;99410.16;;;30.13;29.94
8416;BME280;4245;42.120;24.732;2023-05-06T09:59:37;99401.13;;;29.95;30.35
8416;BME280;4245;42.120;24.732;2023-05-06T10:02:04;99395.31;;;29.23;31.05
8416;BME280;4245;42.120;24.732;2023-05-06T10:04:32;99392.16;;;29.45;31.20
8416;BME280;4245;42.120;24.732;2023-05-06T10:07:02;99393.63;;;29.22;31.54
8416;BME280;4245;42.120;24.732;2023-05-06T10:09:29;99391.75;;;29.23;32.00
8416;BME280;4245;42.120;24.732;2023-05-06T10:11:57;99390.22;;;29.27;31.39
8416;BME280;4245;42.120;24.732;2023-05-06T10:14:25;99382.81;;;28.84;31.52
8416;BME280;4245;42.120;24.732;2023-05-06T10:16:53;99398.78;;;28.87;31.13
8416;BME280;4245;42.120;24.732;2023-05-06T10:19:22;99382.09;;;28.33;32.40
8416;BME280;4245;42.120;24.732;2023-05-06T10:21:56;99387.78;;;27.80;32.93
8416;BME280;4245;42.120;24.732;2023-05-06T10:24:31;99381.72;;;27.65;33.81
8416;BME280;4245;42.120;24.732;2023-05-06T10:27:01;99378.59;;;27.68;32.69
8416;BME280;4245;42.120;24.732;2023-05-06T10:29:34;99379.25;;;27.57;33.68
8416;BME280;4245;42.120;24.732;2023-05-06T10:32:05;99381.16;;;27.50;34.00
8416;BME280;4245;42.120;24.732;2023-05-06T10:34:37;99381.78;;;27.52;34.22
8416;BME280;4245;42.120;24.732;2023-05-06T10:37:07;99383.03;;;27.56;33.75
8416;BME280;4245;42.120;24.732;2023-05-06T10:39:35;99375.88;;;27.61;34.19
8416;BME280;4245;42.120;24.732;2023-05-06T10:42:02;99378.50;;;28.70;32.37
8416;BME280;4245;42.120;24.732;2023-05-06T10:44:56;99385.19;;;30.51;29.69
8416;BME280;4245;42.120;24.732;2023-05-06T10:47:24;99386.25;;;31.85;28.43
8416;BME280;4245;42.120;24.732;2023-05-06T10:50:20;99386.66;;;32.45;26.79
8416;BME280;4245;42.120;24.732;2023-05-06T10:52:49;99384.13;;;31.75;27.46
8416;BME280;4245;42.120;24.732;2023-05-06T10:55:28;99389.63;;;31.05;27.93
8416;BME280;4245;42.120;24.732;2023-05-06T10:57:56;99376.50;;;30.25;28.97
8416;BME280;4245;42.120;24.732;2023-05-06T11:00:23;99383.69;;;29.89;29.79
8416;BME280;4245;42.120;24.732;2023-05-06T11:03:07;99387.16;;;29.17;30.80
8416;BME280;4245;42.120;24.732;2023-05-06T11:05:45;99382.69;;;28.41;31.90
8416;BME280;4245;42.120;24.732;2023-05-06T11:08:14;99381.13;;;28.21;32.11
8416;BME280;4245;42.120;24.732;2023-05-06T11:10:45;99389.97;;;27.52;33.00
8416;BME280;4245;42.120;24.732;2023-05-06T11:13:20;99385.59;;;27.18;33.38
8416;BME280;4245;42.120;24.732;2023-05-06T11:15:48;99385.81;;;26.77;34.19
8416;BME280;4245;42.120;24.732;2023-05-06T11:18:42;99384.50;;;26.47;35.16
8416;BME280;4245;42.120;24.732;2023-05-06T11:21:36;99387.34;;;26.19;35.77
8416;BME280;4245;42.120;24.732;2023-05-06T11:24:10;99381.38;;;25.95;36.49
8416;BME280;4245;42.120;24.732;2023-05-06T11:26:41;99385.56;;;25.91;36.58
8416;BME280;4245;42.120;24.732;2023-05-06T11:29:08;99385.75;;;25.83;37.01
8416;BME280;4245;42.120;24.732;2023-05-06T11:31:40;99387.16;;;25.73;37.30
8416;BME280;4245;42.120;24.732;2023-05-06T11:34:11;99390.28;;;25.70;37.61
8416;BME280;4245;42.120;24.732;2023-05-06T11:36:50;99385.69;;;25.70;37.45
8416;BME280;4245;42.120;24.732;2023-05-06T11:39:17;99387.19;;;25.86;37.07
8416;BME280;4245;42.120;24.732;2023-05-06T11:41:44;99383.63;;;25.85;37.38
8416;BME280;4245;42.120;24.732;2023-05-06T11:44:22;99381.63;;;26.07;36.56
8416;BME280;4245;42.120;24.732;2023-05-06T11:46:49;99380.47;;;26.23;36.61
8416;BME280;4245;42.120;24.732;2023-05-06T11:49:18;99371.09;;;26.58;36.16
8416;BME280;4245;42.120;24.732;2023-05-06T11:51:47;99373.00;;;26.97;35.16
8416;BME280;4245;42.120;24.732;2023-05-06T11:54:14;99381.19;;;27.30;34.72
8416;BME280;4245;42.120;24.732;2023-05-06T11:56:48;99373.84;;;27.95;33.46
8416;BME280;4245;42.120;24.732;2023-05-06T11:59:16;99376.84;;;27.87;33.57
8416;BME280;4245;42.120;24.732;2023-05-06T12:01:44;99381.00;;;27.96;33.59
8416;BME280;4245;42.120;24.732;2023-05-06T12:04:12;99375.41;;;27.71;34.33
8416;BME280;4245;42.120;24.732;2023-05-06T12:06:40;99378.53;;;28.64;33.46
8416;BME280;4245;42.120;24.732;2023-05-06T12:09:10;99386.78;;;29.74;31.94
8416;BME280;4245;42.120;24.732;2023-05-06T12:11:38;99382.66;;;29.84;30.78
8416;BME280;4245;42.120;24.732;2023-05-06T12:14:08;99380.78;;;29.48;31.52
8416;BME280;4245;42.120;24.732;2023-05-06T12:16:36;99373.44;;;28.99;32.38
8416;BME280;4245;42.120;24.732;2023-05-06T12:19:03;99376.41;;;28.66;32.27
8416;BME280;4245;42.120;24.732;2023-05-06T12:21:31;99382.53;;;28.92;31.91
8416;BME280;4245;42.120;24.732;2023-05-06T12:23:59;99374.38;;;28.55;31.97
8416;BME280;4245;42.120;24.732;2023-05-06T12:26:26;99372.47;;;28.24;32.37
8416;BME280;4245;42.120;24.732;2023-05-06T12:29:04;99370.34;;;27.75;33.95
8416;BME280;4245;42.120;24.732;2023-05-06T12:31:31;99369.19;;;27.38;34.46
8416;BME280;4245;42.120;24.732;2023-05-06T12:33:58;99373.22;;;27.15;35.21
8416;BME280;4245;42.120;24.732;2023-05-06T12:36:25;99368.78;;;26.68;36.03
8416;BME280;4245;42.120;24.732;2023-05-06T12:38:53;99359.13;;;26.46;36.67
8416;BME280;4245;42.120;24.732;2023-05-06T12:41:23;99362.66;;;26.27;36.68
8416;BME280;4245;42.120;24.732;2023-05-06T12:43:51;99365.53;;;26.12;37.16
8416;BME280;4245;42.120;24.732;2023-05-06T12:46:17;99356.31;;;26.13;37.15
8416;BME280;4245;42.120;24.732;2023-05-06T12:48:58;99361.50;;;26.02;37.58
8416;BME280;4245;42.120;24.732;2023-05-06T12:51:25;99362.84;;;26.19;37.17
8416;BME280;4245;42.120;24.732;2023-05-06T12:53:53;99358.72;;;26.43;37.03
8416;BME280;4245;42.120;24.732;2023-05-06T12:56:21;99355.59;;;26.52;36.24
8416;BME280;4245;42.120;24.732;2023-05-06T12:58:56;99358.13;;;27.19;35.56
8416;BME280;4245;42.120;24.732;2023-05-06T13:01:23;99351.50;;;28.49;33.14
8416;BME280;4245;42.120;24.732;2023-05-06T13:03:50;99360.53;;;29.49;31.40
8416;BME280;4245;42.120;24.732;2023-05-06T13:06:16;99358.16;;;30.07;30.23
8416;BME280;4245;42.120;24.732;2023-05-06T13:08:43;99355.41;;;30.67;29.33
8416;BME280;4245;42.120;24.732;2023-05-06T13:11:10;99358.28;;;30.72;28.93
8416;BME280;4245;42.120;24.732;2023-05-06T13:13:38;99359.56;;;30.57;29.40
8416;BME280;4245;42.120;24.732;2023-05-06T13:16:07;99357.59;;;30.35;29.53
8416;BME280;4245;42.120;24.732;2023-05-06T13:18:34;99359.66;;;29.91;29.96